ADDS TAF Data INFO
IDs: Format: Raw Decoded Include METARs

Data at: 2022 UTC 22 Apr 2018

KSAF 221953Z VRB06KT 10SM CLR 20/M08 A3014 RMK AO2 SLP142 T02001083

KSAF 221723Z 2218/2318 20009KT P6SM SCT250
  FM230300 13013KT P6SM BKN150
  FM230600 13008KT P6SM BKN150
  FM231700 25010KT P6SM SCT150